createdAt,value
2023-04-05T00:02:45.794Z,13.07
2023-04-05T00:05:34.474Z,15.40
2023-04-05T00:08:26.785Z,14.88
2023-04-05T00:11:13.414Z,14.65
2023-04-05T00:14:00.701Z,21.17
2023-04-05T00:16:47.230Z,14.57
2023-04-05T00:19:34.008Z,17.77
2023-04-05T00:22:25.839Z,16.85
2023-04-05T00:25:13.996Z,16.35
2023-04-05T00:28:02.039Z,15.30
2023-04-05T00:30:48.045Z,19.58
2023-04-05T00:33:34.581Z,18.50
2023-04-05T00:36:21.707Z,15.90
2023-04-05T00:39:08.230Z,14.52
2023-04-05T00:41:56.029Z,17.58
2023-04-05T00:44:42.215Z,16.40
2023-04-05T00:47:28.697Z,15.93
2023-04-05T00:50:15.964Z,15.63
2023-04-05T00:53:02.181Z,17.63
2023-04-05T00:55:48.828Z,15.50
2023-04-05T00:58:37.363Z,19.27
2023-04-05T01:01:27.793Z,17.85
2023-04-05T01:04:21.633Z,14.52
2023-04-05T01:07:14.140Z,12.95
2023-04-05T01:10:01.431Z,13.00
2023-04-05T01:12:48.923Z,13.05
2023-04-05T01:15:36.589Z,20.52
2023-04-05T01:18:24.494Z,15.43
2023-04-05T01:21:34.450Z,13.93
2023-04-05T01:24:32.265Z,16.83
2023-04-05T01:27:23.615Z,13.77
2023-04-05T01:30:18.580Z,14.13
2023-04-05T01:33:14.473Z,15.13
2023-04-05T01:36:05.296Z,14.80
2023-04-05T01:38:56.024Z,14.80
2023-04-05T01:41:42.526Z,13.07
2023-04-05T01:44:28.914Z,16.98
2023-04-05T01:47:16.915Z,13.57
2023-04-05T01:50:03.438Z,15.57
2023-04-05T01:52:49.779Z,12.38
2023-04-05T01:55:36.926Z,14.20
2023-04-05T01:58:24.242Z,14.93
2023-04-05T02:01:10.614Z,15.98
2023-04-05T02:03:58.093Z,15.45
2023-04-05T02:06:45.887Z,16.02
2023-04-05T02:09:32.563Z,17.55
2023-04-05T02:12:18.693Z,17.13
2023-04-05T02:15:05.565Z,14.50
2023-04-05T02:17:53.997Z,15.15
2023-04-05T02:20:41.823Z,15.50
2023-04-05T02:23:30.490Z,12.10
2023-04-05T02:26:17.046Z,17.00
2023-04-05T02:29:03.707Z,13.95
2023-04-05T02:31:50.079Z,13.68
2023-04-05T02:34:37.043Z,16.60
2023-04-05T02:37:26.086Z,13.68
2023-04-05T02:40:14.881Z,15.05
2023-04-05T02:43:02.144Z,17.23
2023-04-05T02:45:48.784Z,19.77
2023-04-05T02:48:39.498Z,12.93
2023-04-05T02:51:26.936Z,15.15
2023-04-05T02:54:14.647Z,17.95
2023-04-05T02:57:03.812Z,16.02
2023-04-05T02:59:59.704Z,18.33
2023-04-05T03:02:48.452Z,13.52
2023-04-05T03:05:34.722Z,14.70
2023-04-05T03:08:23.894Z,17.27
2023-04-05T03:11:21.132Z,16.80
2023-04-05T03:14:12.202Z,16.08
2023-04-05T03:17:04.648Z,16.83
2023-04-05T03:19:56.751Z,19.38
2023-04-05T03:22:46.933Z,14.65
2023-04-05T03:25:33.170Z,16.52
2023-04-05T03:28:21.519Z,16.27
2023-04-05T03:31:11.640Z,13.13
2023-04-05T03:33:58.572Z,17.17
2023-04-05T03:36:49.720Z,12.52
2023-04-05T03:39:59.857Z,16.27
2023-04-05T03:42:46.358Z,13.98
2023-04-05T03:45:34.636Z,17.52
2023-04-05T03:48:21.768Z,20.15
2023-04-05T03:51:09.554Z,13.90
2023-04-05T03:53:56.347Z,17.08
2023-04-05T03:56:45.163Z,20.17
2023-04-05T03:59:35.669Z,14.82
2023-04-05T04:02:25.328Z,14.98
2023-04-05T04:05:12.650Z,15.20
2023-04-05T04:07:59.024Z,18.85
2023-04-05T04:10:45.769Z,16.42
2023-04-05T04:13:43.666Z,13.00
2023-04-05T04:16:39.046Z,15.60
2023-04-05T04:19:44.399Z,14.45
2023-04-05T04:22:49.967Z,20.85
2023-04-05T04:25:55.601Z,13.18
2023-04-05T04:29:01.349Z,17.40
2023-04-05T04:32:22.594Z,16.33
2023-04-05T04:35:38.618Z,16.38
2023-04-05T04:38:35.015Z,13.45
2023-04-05T04:41:47.881Z,14.52
2023-04-05T04:44:58.121Z,19.90
2023-04-05T04:48:05.803Z,27.38
2023-04-05T04:51:19.463Z,31.05
2023-04-05T04:54:05.956Z,20.48
2023-04-05T04:56:52.526Z,18.52
2023-04-05T04:59:39.374Z,64.60
2023-04-05T05:02:31.460Z,48.95
2023-04-05T05:05:17.986Z,35.63
2023-04-05T05:08:06.167Z,27.85
2023-04-05T05:10:53.251Z,18.38
2023-04-05T05:13:39.759Z,13.60
2023-04-05T05:16:27.977Z,18.77
2023-04-05T05:19:14.753Z,17.13
2023-04-05T05:22:05.797Z,19.42
2023-04-05T05:24:53.392Z,15.00
2023-04-05T05:27:39.661Z,19.67
2023-04-05T05:30:27.047Z,31.13
2023-04-05T05:33:20.924Z,23.85
2023-04-05T05:36:07.948Z,25.77
2023-04-05T05:38:54.455Z,24.05
2023-04-05T05:41:41.948Z,18.42
2023-04-05T05:44:28.184Z,24.60
2023-04-05T05:47:14.595Z,24.70
2023-04-05T05:50:01.576Z,26.35
2023-04-05T05:52:48.229Z,22.05
2023-04-05T05:55:34.542Z,24.95
2023-04-05T05:58:21.962Z,24.65
2023-04-05T06:01:08.690Z,24.25
2023-04-05T06:03:55.347Z,19.55
2023-04-05T06:06:42.869Z,18.00
2023-04-05T06:09:29.583Z,18.50
2023-04-05T06:12:15.947Z,19.88
2023-04-05T06:15:03.738Z,22.23
2023-04-05T06:17:50.088Z,19.08
2023-04-05T06:20:40.356Z,17.80
2023-04-05T06:23:27.159Z,13.43
2023-04-05T06:26:18.815Z,22.55
2023-04-05T06:29:05.955Z,17.67
2023-04-05T06:31:54.252Z,15.90
2023-04-05T06:34:40.725Z,17.35
2023-04-05T06:37:27.071Z,18.05
2023-04-05T06:40:14.511Z,20.40
2023-04-05T06:43:00.768Z,17.55
2023-04-05T06:45:50.787Z,21.27
2023-04-05T06:48:38.214Z,22.98
2023-04-05T06:51:25.354Z,21.80
2023-04-05T06:54:11.935Z,18.15
2023-04-05T06:57:00.828Z,16.13
2023-04-05T06:59:48.261Z,14.13
2023-04-05T07:02:36.198Z,15.00
2023-04-05T07:05:24.082Z,14.80
2023-04-05T07:08:10.475Z,13.55
2023-04-05T07:10:56.847Z,11.68
2023-04-05T07:13:43.405Z,12.38
2023-04-05T07:16:29.654Z,11.82
2023-04-05T07:19:16.274Z,12.13
2023-04-05T07:22:04.179Z,12.27
2023-04-05T07:24:52.358Z,12.32
2023-04-05T07:27:39.763Z,13.65
2023-04-05T07:30:27.369Z,16.00
2023-04-05T07:33:13.913Z,11.60
2023-04-05T07:36:00.844Z,12.05
2023-04-05T07:38:48.838Z,14.55
2023-04-05T07:41:37.086Z,13.32
2023-04-05T07:44:23.221Z,10.50
2023-04-05T07:47:09.690Z,14.23
2023-04-05T07:49:55.948Z,14.07
2023-04-05T07:52:42.422Z,10.98
2023-04-05T07:55:30.238Z,11.13
2023-04-05T07:58:17.577Z,12.52
2023-04-05T08:01:04.951Z,13.07
2023-04-05T08:03:51.408Z,17.33
2023-04-05T08:06:37.716Z,10.30
2023-04-05T08:09:24.063Z,13.15
2023-04-05T08:12:15.338Z,10.90
2023-04-05T08:15:01.663Z,13.38
2023-04-05T08:17:48.491Z,12.25
2023-04-05T08:20:39.242Z,11.70
2023-04-05T08:23:27.087Z,12.93
2023-04-05T08:26:13.620Z,12.27
2023-04-05T08:29:01.426Z,13.50
2023-04-05T08:31:47.737Z,12.65
2023-04-05T08:34:34.071Z,11.18
2023-04-05T08:37:20.530Z,12.55
2023-04-05T08:40:08.500Z,13.23
2023-04-05T08:43:04.631Z,10.95
2023-04-05T08:45:53.860Z,8.10
2023-04-05T08:48:41.494Z,14.73
2023-04-05T08:51:28.502Z,10.43
2023-04-05T08:54:14.714Z,7.63
2023-04-05T08:57:04.034Z,10.63
2023-04-05T08:59:50.783Z,10.68
2023-04-05T09:02:39.767Z,10.68
2023-04-05T09:05:28.073Z,10.13
2023-04-05T09:08:15.399Z,8.27
2023-04-05T09:11:01.487Z,8.50
2023-04-05T09:13:49.025Z,9.85
2023-04-05T09:16:38.774Z,6.28
2023-04-05T09:19:26.610Z,8.77
2023-04-05T09:22:14.046Z,11.85
2023-04-05T09:25:01.166Z,9.35
2023-04-05T09:27:56.444Z,7.28
2023-04-05T09:30:47.456Z,11.02
2023-04-05T09:33:35.438Z,7.97
2023-04-05T09:36:23.653Z,8.80
2023-04-05T09:39:11.065Z,8.35
2023-04-05T09:42:06.693Z,7.57
2023-04-05T09:44:55.961Z,25.85
2023-04-05T09:47:42.750Z,8.70
2023-04-05T09:50:29.612Z,11.43
2023-04-05T09:53:21.935Z,11.10
2023-04-05T09:56:11.357Z,9.27
2023-04-05T09:59:02.224Z,8.60
2023-04-05T10:01:52.520Z,8.75
2023-04-05T10:04:42.300Z,10.60
2023-04-05T10:07:28.473Z,8.80
2023-04-05T10:10:16.292Z,8.18
2023-04-05T10:13:06.323Z,8.63
2023-04-05T10:15:57.691Z,8.93
2023-04-05T10:18:48.544Z,9.25
2023-04-05T10:21:38.874Z,10.50
2023-04-05T10:24:36.776Z,10.60
2023-04-05T10:27:31.245Z,8.15
2023-04-05T10:30:17.943Z,11.43
2023-04-05T10:33:14.687Z,12.20
2023-04-05T10:36:08.386Z,8.95
2023-04-05T10:39:02.419Z,9.43
2023-04-05T10:41:50.302Z,9.73
2023-04-05T10:44:40.399Z,8.88
2023-04-05T10:47:30.029Z,9.10
2023-04-05T10:50:23.022Z,11.73
2023-04-05T10:53:11.035Z,9.48
2023-04-05T10:55:59.203Z,7.22
2023-04-05T10:58:47.928Z,9.65
2023-04-05T11:01:36.499Z,8.90
2023-04-05T11:04:23.229Z,7.60
2023-04-05T11:07:14.096Z,10.70
2023-04-05T11:10:03.077Z,8.55
2023-04-05T11:13:06.690Z,9.98
2023-04-05T11:16:14.132Z,9.68
2023-04-05T11:19:01.951Z,9.40
2023-04-05T11:21:48.587Z,11.07
2023-04-05T11:24:51.443Z,9.60
2023-04-05T11:27:38.038Z,10.30
2023-04-05T11:30:47.531Z,9.25
2023-04-05T11:33:57.251Z,9.85
2023-04-05T11:36:48.572Z,8.18
2023-04-05T11:42:21.269Z,10.38
2023-04-05T11:45:09.543Z,13.93
2023-04-05T11:47:55.821Z,12.63
2023-04-05T11:50:42.868Z,8.02
2023-04-05T11:53:30.410Z,9.55
2023-04-05T11:56:16.692Z,9.30
2023-04-05T11:59:03.097Z,8.82
2023-04-05T12:01:59.235Z,10.02
2023-04-05T12:04:45.451Z,7.95
2023-04-05T12:07:36.844Z,8.75
2023-04-05T12:10:24.817Z,12.27
2023-04-05T12:13:11.190Z,10.35
2023-04-05T12:16:00.363Z,9.50
2023-04-05T12:18:54.592Z,10.27
2023-04-05T12:21:41.390Z,8.82
2023-04-05T12:24:27.831Z,8.05
2023-04-05T12:27:15.610Z,11.70
2023-04-05T12:30:15.692Z,9.55
2023-04-05T12:33:08.805Z,10.88
2023-04-05T12:35:55.527Z,7.28
2023-04-05T12:38:42.064Z,9.70
2023-04-05T12:41:29.613Z,8.13
2023-04-05T12:44:18.119Z,8.63
2023-04-05T12:47:09.127Z,10.38
2023-04-05T12:49:56.412Z,8.40
2023-04-05T12:52:53.242Z,12.43
2023-04-05T12:55:45.760Z,10.23
2023-04-05T12:58:37.514Z,10.15
2023-04-05T13:01:25.601Z,10.98
2023-04-05T13:04:16.696Z,8.55
2023-04-05T13:07:03.464Z,9.40
2023-04-05T13:09:49.762Z,12.07
2023-04-05T13:12:36.540Z,10.57
2023-04-05T13:15:23.037Z,9.65
2023-04-05T13:18:14.708Z,10.15
2023-04-05T13:21:00.938Z,11.32
2023-04-05T13:23:47.238Z,9.30
2023-04-05T13:26:33.335Z,10.95
2023-04-05T13:29:19.699Z,11.20
2023-04-05T13:32:06.659Z,9.25
2023-04-05T13:34:54.291Z,9.55
2023-04-05T13:37:40.705Z,8.52
2023-04-05T13:40:28.125Z,11.38
2023-04-05T13:43:14.626Z,9.95
2023-04-05T13:46:01.009Z,9.43
2023-04-05T13:48:47.735Z,8.93
2023-04-05T13:51:41.373Z,11.43
2023-04-05T13:54:30.085Z,8.40
2023-04-05T13:57:16.951Z,9.65
2023-04-05T14:00:03.725Z,12.25
2023-04-05T14:02:59.838Z,10.43
2023-04-05T14:05:50.664Z,9.38
2023-04-05T14:08:40.234Z,10.27
2023-04-05T14:11:27.618Z,8.88
2023-04-05T14:14:14.079Z,8.68
2023-04-05T14:17:01.227Z,11.30
2023-04-05T14:19:47.946Z,10.43
2023-04-05T14:22:34.340Z,8.18
2023-04-05T14:25:22.282Z,10.10
2023-04-05T14:28:08.816Z,8.13
2023-04-05T14:30:55.139Z,12.70
2023-04-05T14:33:42.036Z,9.60
2023-04-05T14:36:28.534Z,8.85
2023-04-05T14:39:17.280Z,11.45
2023-04-05T14:42:04.789Z,10.23
2023-04-05T14:44:51.880Z,13.35
2023-04-05T14:47:38.309Z,10.48
2023-04-05T14:50:26.239Z,11.13
2023-04-05T14:53:12.889Z,14.85
2023-04-05T14:55:59.206Z,10.82
2023-04-05T14:58:47.167Z,8.57
2023-04-05T15:01:33.665Z,14.55
2023-04-05T15:04:20.312Z,8.48
2023-04-05T15:07:15.337Z,9.50
2023-04-05T15:10:02.644Z,10.75
2023-04-05T15:12:50.134Z,8.68
2023-04-05T15:15:38.316Z,12.90
2023-04-05T15:18:24.435Z,11.23
2023-04-05T15:21:11.693Z,9.80
2023-04-05T15:23:57.844Z,9.68
2023-04-05T15:26:44.398Z,9.45
2023-04-05T15:29:31.655Z,12.05
2023-04-05T15:32:19.369Z,9.40
2023-04-05T15:35:07.374Z,9.43
2023-04-05T15:37:54.274Z,11.82
2023-04-05T15:40:40.722Z,8.60
2023-04-05T15:43:27.039Z,9.75
2023-04-05T15:46:13.574Z,10.32
2023-04-05T15:49:02.835Z,11.50
2023-04-05T15:51:49.719Z,12.93
2023-04-05T15:54:37.276Z,11.50
2023-04-05T15:57:24.769Z,11.05
2023-04-05T16:00:12.494Z,13.57
2023-04-05T16:03:00.590Z,9.50
2023-04-05T16:05:48.943Z,10.68
2023-04-05T16:12:37.520Z,11.35
2023-04-05T16:15:24.551Z,8.85
2023-04-05T16:18:14.136Z,8.18
2023-04-05T16:21:02.277Z,10.10
2023-04-05T16:23:49.306Z,9.48
2023-04-05T16:26:35.858Z,11.57
2023-04-05T16:29:22.370Z,10.63
2023-04-05T16:32:11.259Z,11.23
2023-04-05T16:34:58.186Z,10.32
2023-04-05T16:37:46.566Z,9.35
2023-04-05T16:40:33.971Z,12.43
2023-04-05T16:43:20.418Z,13.02
2023-04-05T16:46:07.370Z,10.57
2023-04-05T16:48:54.991Z,13.68
2023-04-05T16:51:41.335Z,11.07
2023-04-05T16:54:29.260Z,10.43
2023-04-05T16:57:15.916Z,10.55
2023-04-05T17:00:02.142Z,17.85
2023-04-05T17:02:49.876Z,10.55
2023-04-05T17:05:36.866Z,10.85
2023-04-05T17:08:24.179Z,10.27
2023-04-05T17:11:11.924Z,10.25
2023-04-05T17:13:59.405Z,16.85
2023-04-05T17:16:46.472Z,13.90
2023-04-05T17:19:33.012Z,13.63
2023-04-05T17:22:19.538Z,11.10
2023-04-05T17:25:06.786Z,12.52
2023-04-05T17:27:54.260Z,13.43
2023-04-05T17:30:40.937Z,14.10
2023-04-05T17:33:28.138Z,15.60
2023-04-05T17:36:14.443Z,14.82
2023-04-05T17:39:01.095Z,9.65
2023-04-05T17:41:47.528Z,12.15
2023-04-05T17:44:35.485Z,11.63
2023-04-05T17:47:21.811Z,14.40
2023-04-05T17:50:08.856Z,11.82
2023-04-05T17:52:55.743Z,13.55
2023-04-05T17:56:10.015Z,15.63
2023-04-05T17:58:57.786Z,18.02
2023-04-05T18:01:53.556Z,16.95
2023-04-05T18:04:40.418Z,16.77
2023-04-05T18:07:27.277Z,13.40
2023-04-05T18:10:14.349Z,13.15
2023-04-05T18:13:02.329Z,11.32
2023-04-05T18:15:53.529Z,12.00
2023-04-05T18:18:41.280Z,14.70
2023-04-05T18:21:28.458Z,16.20
2023-04-05T18:24:15.413Z,14.90
2023-04-05T18:27:01.992Z,17.90
2023-04-05T18:29:48.535Z,18.60
2023-04-05T18:32:35.409Z,20.17
2023-04-05T18:35:23.094Z,17.10
2023-04-05T18:38:09.569Z,21.25
2023-04-05T18:41:01.249Z,14.60
2023-04-05T18:43:48.047Z,18.63
2023-04-05T18:46:34.517Z,13.77
2023-04-05T18:49:21.443Z,15.93
2023-04-05T18:52:10.255Z,14.48
2023-04-05T18:54:58.476Z,15.70
2023-04-05T18:57:44.607Z,17.55
2023-04-05T19:00:31.080Z,17.00
2023-04-05T19:03:17.425Z,24.27
2023-04-05T19:06:04.017Z,19.15
2023-04-05T19:08:51.442Z,46.80
2023-04-05T19:11:37.856Z,21.38
2023-04-05T19:14:24.662Z,18.08
2023-04-05T19:17:11.212Z,21.42
2023-04-05T19:19:57.563Z,16.23
2023-04-05T19:22:44.049Z,26.20
2023-04-05T19:25:31.873Z,23.30
2023-04-05T19:28:18.444Z,21.02
2023-04-05T19:31:04.921Z,25.85
2023-04-05T19:33:51.235Z,29.55
2023-04-05T19:36:38.634Z,16.67
2023-04-05T19:39:25.635Z,20.88
2023-04-05T19:42:13.345Z,23.13
2023-04-05T19:45:00.078Z,22.05
2023-04-05T19:47:48.836Z,27.23
2023-04-05T19:50:55.007Z,29.45
2023-04-05T19:53:47.765Z,26.90
2023-04-05T19:56:37.278Z,24.33
2023-04-05T19:59:31.067Z,23.48
2023-04-05T20:02:36.845Z,16.45
2023-04-05T20:05:59.395Z,17.80
2023-04-05T20:08:48.412Z,16.48
2023-04-05T20:11:35.855Z,13.95
2023-04-05T20:14:31.509Z,15.63
2023-04-05T20:17:19.183Z,17.17
2023-04-05T20:20:07.945Z,18.00
2023-04-05T20:22:54.707Z,18.77
2023-04-05T20:30:11.573Z,15.45
2023-04-05T20:32:58.088Z,17.15
2023-04-05T20:35:44.638Z,20.40
2023-04-05T20:38:30.903Z,22.70
2023-04-05T20:41:18.821Z,19.05
2023-04-05T20:44:42.927Z,19.00
2023-04-05T20:47:56.574Z,19.08
2023-04-05T20:50:42.926Z,20.38
2023-04-05T20:53:29.545Z,20.33
2023-04-05T20:56:15.880Z,18.55
2023-04-05T20:59:02.308Z,19.25
2023-04-05T21:01:49.100Z,19.15
2023-04-05T21:04:37.125Z,20.63
2023-04-05T21:07:24.155Z,23.55
2023-04-05T21:10:11.338Z,19.88
2023-04-05T21:12:57.929Z,23.52
2023-04-05T21:15:44.180Z,25.23
2023-04-05T21:18:31.066Z,22.30
2023-04-05T21:21:18.607Z,24.38
2023-04-05T21:24:05.065Z,24.33
2023-04-05T21:26:51.116Z,24.08
2023-04-05T21:29:37.528Z,24.35
2023-04-05T21:32:23.868Z,22.52
2023-04-05T21:35:10.605Z,22.38
2023-04-05T21:37:58.426Z,21.55
2023-04-05T21:40:45.307Z,25.40
2023-04-05T21:43:31.774Z,27.27
2023-04-05T21:46:20.474Z,21.77
2023-04-05T21:49:07.332Z,26.33
2023-04-05T21:51:53.662Z,23.92
2023-04-05T21:54:41.447Z,23.10
2023-04-05T21:57:27.910Z,19.08
2023-04-05T22:00:15.397Z,23.17
2023-04-05T22:03:02.148Z,25.45
2023-04-05T22:05:48.557Z,23.45
2023-04-05T22:08:35.133Z,21.13
2023-04-05T22:11:23.781Z,24.25
2023-04-05T22:14:10.708Z,29.00
2023-04-05T22:16:57.684Z,24.38
2023-04-05T22:19:44.319Z,27.88
2023-04-05T22:22:30.522Z,26.27
2023-04-05T22:25:16.813Z,24.75
2023-04-05T22:28:05.134Z,25.95
2023-04-05T22:30:51.590Z,26.58
2023-04-05T22:33:37.750Z,22.80
2023-04-05T22:36:24.193Z,23.67
2023-04-05T22:39:11.187Z,25.73
2023-04-05T22:41:57.777Z,24.17
2023-04-05T22:44:45.672Z,24.50
2023-04-05T22:47:32.146Z,30.05
2023-04-05T22:50:18.491Z,28.67
2023-04-05T22:53:04.906Z,29.27
2023-04-05T22:55:51.741Z,27.65
2023-04-05T22:58:38.342Z,23.60
2023-04-05T23:01:26.578Z,25.42
2023-04-05T23:04:12.762Z,22.15
2023-04-05T23:06:59.021Z,21.10
2023-04-05T23:09:45.393Z,23.45
2023-04-05T23:12:31.903Z,24.13
2023-04-05T23:15:18.628Z,22.70
2023-04-05T23:18:06.460Z,21.58
2023-04-05T23:20:52.925Z,20.45
2023-04-05T23:23:39.159Z,20.40
2023-04-05T23:26:25.969Z,22.15
2023-04-05T23:29:12.162Z,23.58
2023-04-05T23:31:58.375Z,20.98
2023-04-05T23:34:46.276Z,20.92
2023-04-05T23:37:32.837Z,20.65
2023-04-05T23:40:19.633Z,22.80
2023-04-05T23:43:05.843Z,17.77
2023-04-05T23:45:52.433Z,23.10
2023-04-05T23:48:38.703Z,20.13
2023-04-05T23:51:26.455Z,18.27
2023-04-05T23:54:12.695Z,22.58
2023-04-05T23:56:59.050Z,23.70
2023-04-05T23:59:45.578Z,17.73
